sensor_id;sensor_type;location;lat;lon;timestamp;P1;durP1;ratioP1;P2;durP2;ratioP2
9970;SDS011;5026;51.494;11.974;2023-03-11T00:00:50;2.97;;;2.50;;
9970;SDS011;5026;51.494;11.974;2023-03-11T00:03:18;3.43;;;2.90;;
9970;SDS011;5026;51.494;11.974;2023-03-11T00:05:48;4.27;;;3.33;;
9970;SDS011;5026;51.494;11.974;2023-03-11T00:08:16;4.83;;;3.83;;
9970;SDS011;5026;51.494;11.974;2023-03-11T00:10:45;4.03;;;3.33;;
9970;SDS011;5026;51.494;11.974;2023-03-11T00:13:14;4.63;;;3.57;;
9970;SDS011;5026;51.494;11.974;2023-03-11T00:15:42;4.43;;;3.50;;
9970;SDS011;5026;51.494;11.974;2023-03-11T00:18:11;4.33;;;3.90;;
9970;SDS011;5026;51.494;11.974;2023-03-11T00:20:41;4.37;;;3.97;;
9970;SDS011;5026;51.494;11.974;2023-03-11T00:23:10;4.67;;;3.87;;
9970;SDS011;5026;51.494;11.974;2023-03-11T00:25:38;4.50;;;3.90;;
9970;SDS011;5026;51.494;11.974;2023-03-11T00:28:07;5.23;;;4.50;;
9970;SDS011;5026;51.494;11.974;2023-03-11T00:30:35;5.03;;;4.27;;
9970;SDS011;5026;51.494;11.974;2023-03-11T00:33:02;6.47;;;4.67;;
9970;SDS011;5026;51.494;11.974;2023-03-11T00:35:30;5.87;;;4.40;;
9970;SDS011;5026;51.494;11.974;2023-03-11T00:38:00;8.67;;;5.33;;
9970;SDS011;5026;51.494;11.974;2023-03-11T00:40:29;6.53;;;5.47;;
9970;SDS011;5026;51.494;11.974;2023-03-11T00:42:57;7.67;;;6.23;;
9970;SDS011;5026;51.494;11.974;2023-03-11T00:45:24;7.40;;;5.87;;
9970;SDS011;5026;51.494;11.974;2023-03-11T00:47:53;7.40;;;5.77;;
9970;SDS011;5026;51.494;11.974;2023-03-11T00:50:21;9.37;;;6.73;;
9970;SDS011;5026;51.494;11.974;2023-03-11T00:52:50;10.80;;;7.33;;
9970;SDS011;5026;51.494;11.974;2023-03-11T00:55:20;8.27;;;5.90;;
9970;SDS011;5026;51.494;11.974;2023-03-11T00:57:50;7.70;;;5.60;;
9970;SDS011;5026;51.494;11.974;2023-03-11T01:00:18;8.63;;;6.03;;
9970;SDS011;5026;51.494;11.974;2023-03-11T01:02:46;9.60;;;6.60;;
9970;SDS011;5026;51.494;11.974;2023-03-11T01:05:13;9.97;;;6.27;;
9970;SDS011;5026;51.494;11.974;2023-03-11T01:07:40;9.33;;;6.50;;
9970;SDS011;5026;51.494;11.974;2023-03-11T01:10:08;7.60;;;5.40;;
9970;SDS011;5026;51.494;11.974;2023-03-11T01:12:37;8.03;;;6.67;;
9970;SDS011;5026;51.494;11.974;2023-03-11T01:15:05;8.87;;;6.43;;
9970;SDS011;5026;51.494;11.974;2023-03-11T01:17:33;7.77;;;5.87;;
9970;SDS011;5026;51.494;11.974;2023-03-11T01:19:59;7.03;;;5.10;;
9970;SDS011;5026;51.494;11.974;2023-03-11T01:22:29;7.27;;;5.67;;
9970;SDS011;5026;51.494;11.974;2023-03-11T01:24:56;7.20;;;5.57;;
9970;SDS011;5026;51.494;11.974;2023-03-11T01:27:23;6.00;;;5.17;;
9970;SDS011;5026;51.494;11.974;2023-03-11T01:29:51;8.13;;;5.93;;
9970;SDS011;5026;51.494;11.974;2023-03-11T01:32:18;8.57;;;6.23;;
9970;SDS011;5026;51.494;11.974;2023-03-11T01:34:45;9.33;;;6.63;;
9970;SDS011;5026;51.494;11.974;2023-03-11T01:37:12;8.40;;;6.23;;
9970;SDS011;5026;51.494;11.974;2023-03-11T01:39:38;10.30;;;7.37;;
9970;SDS011;5026;51.494;11.974;2023-03-11T01:42:06;10.13;;;7.23;;
9970;SDS011;5026;51.494;11.974;2023-03-11T01:44:33;13.43;;;8.30;;
9970;SDS011;5026;51.494;11.974;2023-03-11T01:50:06;13.60;;;9.10;;
9970;SDS011;5026;51.494;11.974;2023-03-11T01:52:36;13.10;;;8.80;;
9970;SDS011;5026;51.494;11.974;2023-03-11T01:55:04;13.30;;;8.23;;
9970;SDS011;5026;51.494;11.974;2023-03-11T01:57:32;12.73;;;8.40;;
9970;SDS011;5026;51.494;11.974;2023-03-11T02:00:01;12.03;;;7.77;;
9970;SDS011;5026;51.494;11.974;2023-03-11T02:02:31;11.57;;;8.20;;
9970;SDS011;5026;51.494;11.974;2023-03-11T02:05:03;13.27;;;8.40;;
9970;SDS011;5026;51.494;11.974;2023-03-11T02:07:30;13.53;;;8.53;;
9970;SDS011;5026;51.494;11.974;2023-03-11T02:09:58;11.53;;;7.63;;
9970;SDS011;5026;51.494;11.974;2023-03-11T02:12:27;11.83;;;7.90;;
9970;SDS011;5026;51.494;11.974;2023-03-11T02:14:56;11.13;;;7.57;;
9970;SDS011;5026;51.494;11.974;2023-03-11T02:17:23;11.67;;;7.53;;
9970;SDS011;5026;51.494;11.974;2023-03-11T02:19:58;12.37;;;8.10;;
9970;SDS011;5026;51.494;11.974;2023-03-11T02:22:38;11.57;;;8.10;;
9970;SDS011;5026;51.494;11.974;2023-03-11T02:25:07;12.67;;;8.23;;
9970;SDS011;5026;51.494;11.974;2023-03-11T02:27:44;14.47;;;9.10;;
9970;SDS011;5026;51.494;11.974;2023-03-11T02:30:14;12.23;;;7.97;;
9970;SDS011;5026;51.494;11.974;2023-03-11T02:32:42;13.33;;;8.23;;
9970;SDS011;5026;51.494;11.974;2023-03-11T02:35:12;15.43;;;8.73;;
9970;SDS011;5026;51.494;11.974;2023-03-11T02:37:42;13.30;;;8.63;;
9970;SDS011;5026;51.494;11.974;2023-03-11T02:43:08;14.77;;;8.67;;
9970;SDS011;5026;51.494;11.974;2023-03-11T02:45:37;14.13;;;8.43;;
9970;SDS011;5026;51.494;11.974;2023-03-11T02:48:06;16.50;;;9.90;;
9970;SDS011;5026;51.494;11.974;2023-03-11T02:50:35;15.73;;;9.20;;
9970;SDS011;5026;51.494;11.974;2023-03-11T02:53:02;15.60;;;9.60;;
9970;SDS011;5026;51.494;11.974;2023-03-11T02:55:30;14.20;;;8.97;;
9970;SDS011;5026;51.494;11.974;2023-03-11T02:57:57;15.93;;;9.20;;
9970;SDS011;5026;51.494;11.974;2023-03-11T03:00:26;15.73;;;9.30;;
9970;SDS011;5026;51.494;11.974;2023-03-11T03:02:53;14.73;;;9.00;;
9970;SDS011;5026;51.494;11.974;2023-03-11T03:05:20;15.00;;;8.80;;
9970;SDS011;5026;51.494;11.974;2023-03-11T03:07:48;13.00;;;9.00;;
9970;SDS011;5026;51.494;11.974;2023-03-11T03:10:16;11.60;;;7.13;;
9970;SDS011;5026;51.494;11.974;2023-03-11T03:12:44;12.57;;;8.43;;
9970;SDS011;5026;51.494;11.974;2023-03-11T03:15:11;14.67;;;8.27;;
9970;SDS011;5026;51.494;11.974;2023-03-11T03:17:41;11.07;;;6.53;;
9970;SDS011;5026;51.494;11.974;2023-03-11T03:20:09;17.20;;;8.83;;
9970;SDS011;5026;51.494;11.974;2023-03-11T03:22:38;15.43;;;8.67;;
9970;SDS011;5026;51.494;11.974;2023-03-11T03:25:06;16.00;;;8.37;;
9970;SDS011;5026;51.494;11.974;2023-03-11T03:27:34;14.73;;;9.17;;
9970;SDS011;5026;51.494;11.974;2023-03-11T03:30:02;14.17;;;9.27;;
9970;SDS011;5026;51.494;11.974;2023-03-11T03:32:29;15.80;;;9.40;;
9970;SDS011;5026;51.494;11.974;2023-03-11T03:34:58;15.20;;;8.93;;
9970;SDS011;5026;51.494;11.974;2023-03-11T03:37:26;14.60;;;8.80;;
9970;SDS011;5026;51.494;11.974;2023-03-11T03:39:53;13.10;;;7.83;;
9970;SDS011;5026;51.494;11.974;2023-03-11T03:42:20;13.30;;;8.87;;
9970;SDS011;5026;51.494;11.974;2023-03-11T03:44:49;13.93;;;8.80;;
9970;SDS011;5026;51.494;11.974;2023-03-11T03:47:16;13.77;;;8.13;;
9970;SDS011;5026;51.494;11.974;2023-03-11T03:49:43;12.93;;;8.00;;
9970;SDS011;5026;51.494;11.974;2023-03-11T03:52:11;15.53;;;8.87;;
9970;SDS011;5026;51.494;11.974;2023-03-11T03:54:39;13.50;;;8.53;;
9970;SDS011;5026;51.494;11.974;2023-03-11T03:57:06;14.00;;;9.10;;
9970;SDS011;5026;51.494;11.974;2023-03-11T03:59:32;16.67;;;9.30;;
9970;SDS011;5026;51.494;11.974;2023-03-11T04:02:00;14.23;;;8.00;;
9970;SDS011;5026;51.494;11.974;2023-03-11T04:04:26;14.33;;;8.63;;
9970;SDS011;5026;51.494;11.974;2023-03-11T04:06:54;14.13;;;7.80;;
9970;SDS011;5026;51.494;11.974;2023-03-11T04:09:22;15.30;;;7.90;;
9970;SDS011;5026;51.494;11.974;2023-03-11T04:11:49;12.37;;;7.57;;
9970;SDS011;5026;51.494;11.974;2023-03-11T04:14:16;14.13;;;7.73;;
9970;SDS011;5026;51.494;11.974;2023-03-11T04:16:43;12.63;;;7.43;;
9970;SDS011;5026;51.494;11.974;2023-03-11T04:19:10;13.63;;;8.00;;
9970;SDS011;5026;51.494;11.974;2023-03-11T04:21:37;13.30;;;7.77;;
9970;SDS011;5026;51.494;11.974;2023-03-11T04:24:04;16.87;;;8.17;;
9970;SDS011;5026;51.494;11.974;2023-03-11T04:26:32;13.00;;;8.13;;
9970;SDS011;5026;51.494;11.974;2023-03-11T04:29:00;14.80;;;8.73;;
9970;SDS011;5026;51.494;11.974;2023-03-11T04:31:27;14.97;;;8.37;;
9970;SDS011;5026;51.494;11.974;2023-03-11T04:33:54;16.23;;;8.43;;
9970;SDS011;5026;51.494;11.974;2023-03-11T04:36:21;15.23;;;8.90;;
9970;SDS011;5026;51.494;11.974;2023-03-11T04:38:47;16.77;;;9.67;;
9970;SDS011;5026;51.494;11.974;2023-03-11T04:41:14;20.33;;;10.60;;
9970;SDS011;5026;51.494;11.974;2023-03-11T04:43:43;20.23;;;9.93;;
9970;SDS011;5026;51.494;11.974;2023-03-11T04:46:10;22.70;;;11.23;;
9970;SDS011;5026;51.494;11.974;2023-03-11T04:48:37;21.10;;;11.33;;
9970;SDS011;5026;51.494;11.974;2023-03-11T04:51:04;17.30;;;10.50;;
9970;SDS011;5026;51.494;11.974;2023-03-11T04:53:31;20.97;;;10.53;;
9970;SDS011;5026;51.494;11.974;2023-03-11T04:55:58;18.30;;;9.67;;
9970;SDS011;5026;51.494;11.974;2023-03-11T04:58:25;20.20;;;11.27;;
9970;SDS011;5026;51.494;11.974;2023-03-11T05:00:54;20.00;;;10.57;;
9970;SDS011;5026;51.494;11.974;2023-03-11T05:03:21;20.80;;;10.93;;
9970;SDS011;5026;51.494;11.974;2023-03-11T05:05:48;19.43;;;10.73;;
9970;SDS011;5026;51.494;11.974;2023-03-11T05:08:17;19.07;;;10.23;;
9970;SDS011;5026;51.494;11.974;2023-03-11T05:10:44;19.30;;;10.40;;
9970;SDS011;5026;51.494;11.974;2023-03-11T05:13:10;19.23;;;11.00;;
9970;SDS011;5026;51.494;11.974;2023-03-11T05:15:37;16.30;;;9.53;;
9970;SDS011;5026;51.494;11.974;2023-03-11T05:18:07;19.80;;;10.63;;
9970;SDS011;5026;51.494;11.974;2023-03-11T05:20:34;14.80;;;8.53;;
9970;SDS011;5026;51.494;11.974;2023-03-11T05:23:01;16.43;;;9.13;;
9970;SDS011;5026;51.494;11.974;2023-03-11T05:25:28;15.37;;;7.87;;
9970;SDS011;5026;51.494;11.974;2023-03-11T05:27:55;14.13;;;8.20;;
9970;SDS011;5026;51.494;11.974;2023-03-11T05:30:22;13.87;;;7.80;;
9970;SDS011;5026;51.494;11.974;2023-03-11T05:32:49;11.20;;;7.37;;
9970;SDS011;5026;51.494;11.974;2023-03-11T05:35:17;12.20;;;7.47;;
9970;SDS011;5026;51.494;11.974;2023-03-11T05:37:44;10.80;;;6.33;;
9970;SDS011;5026;51.494;11.974;2023-03-11T05:40:14;9.47;;;6.20;;
9970;SDS011;5026;51.494;11.974;2023-03-11T05:42:41;10.13;;;6.00;;
9970;SDS011;5026;51.494;11.974;2023-03-11T05:45:08;9.20;;;6.20;;
9970;SDS011;5026;51.494;11.974;2023-03-11T05:47:36;10.60;;;6.77;;
9970;SDS011;5026;51.494;11.974;2023-03-11T05:50:06;12.63;;;7.67;;
9970;SDS011;5026;51.494;11.974;2023-03-11T05:52:35;8.73;;;6.00;;
9970;SDS011;5026;51.494;11.974;2023-03-11T05:55:03;12.63;;;7.40;;
9970;SDS011;5026;51.494;11.974;2023-03-11T05:57:30;9.47;;;6.33;;
9970;SDS011;5026;51.494;11.974;2023-03-11T05:59:57;11.97;;;7.20;;
9970;SDS011;5026;51.494;11.974;2023-03-11T06:02:24;12.50;;;6.60;;
9970;SDS011;5026;51.494;11.974;2023-03-11T06:04:51;11.50;;;6.93;;
9970;SDS011;5026;51.494;11.974;2023-03-11T06:07:18;11.73;;;6.80;;
9970;SDS011;5026;51.494;11.974;2023-03-11T06:12:54;11.97;;;7.13;;
9970;SDS011;5026;51.494;11.974;2023-03-11T06:15:20;9.80;;;6.10;;
9970;SDS011;5026;51.494;11.974;2023-03-11T06:17:47;9.47;;;5.83;;
9970;SDS011;5026;51.494;11.974;2023-03-11T06:20:14;10.27;;;6.03;;
9970;SDS011;5026;51.494;11.974;2023-03-11T06:22:41;11.30;;;6.03;;
9970;SDS011;5026;51.494;11.974;2023-03-11T06:25:08;7.57;;;5.70;;
9970;SDS011;5026;51.494;11.974;2023-03-11T06:27:36;8.27;;;5.70;;
9970;SDS011;5026;51.494;11.974;2023-03-11T06:30:05;9.07;;;5.37;;
9970;SDS011;5026;51.494;11.974;2023-03-11T06:32:34;7.47;;;5.30;;
9970;SDS011;5026;51.494;11.974;2023-03-11T06:35:01;7.40;;;5.30;;
9970;SDS011;5026;51.494;11.974;2023-03-11T06:37:28;7.60;;;5.37;;
9970;SDS011;5026;51.494;11.974;2023-03-11T06:39:55;7.67;;;5.50;;
9970;SDS011;5026;51.494;11.974;2023-03-11T06:42:22;7.83;;;5.70;;
9970;SDS011;5026;51.494;11.974;2023-03-11T06:44:49;8.80;;;5.73;;
9970;SDS011;5026;51.494;11.974;2023-03-11T06:47:17;9.87;;;5.90;;
9970;SDS011;5026;51.494;11.974;2023-03-11T06:49:44;6.80;;;5.63;;
9970;SDS011;5026;51.494;11.974;2023-03-11T06:52:11;8.13;;;5.90;;
9970;SDS011;5026;51.494;11.974;2023-03-11T06:54:38;8.90;;;5.67;;
9970;SDS011;5026;51.494;11.974;2023-03-11T06:57:05;8.23;;;5.43;;
9970;SDS011;5026;51.494;11.974;2023-03-11T06:59:35;9.40;;;6.00;;
9970;SDS011;5026;51.494;11.974;2023-03-11T07:02:03;9.70;;;6.13;;
9970;SDS011;5026;51.494;11.974;2023-03-11T07:04:32;7.83;;;5.50;;
9970;SDS011;5026;51.494;11.974;2023-03-11T07:06:59;10.80;;;5.37;;
9970;SDS011;5026;51.494;11.974;2023-03-11T07:09:26;9.07;;;6.20;;
9970;SDS011;5026;51.494;11.974;2023-03-11T07:11:53;8.27;;;5.90;;
9970;SDS011;5026;51.494;11.974;2023-03-11T07:14:20;9.73;;;5.73;;
9970;SDS011;5026;51.494;11.974;2023-03-11T07:16:47;11.73;;;5.53;;
9970;SDS011;5026;51.494;11.974;2023-03-11T07:19:14;9.60;;;5.70;;
9970;SDS011;5026;51.494;11.974;2023-03-11T07:21:43;7.90;;;5.60;;
9970;SDS011;5026;51.494;11.974;2023-03-11T07:24:10;6.93;;;5.27;;
9970;SDS011;5026;51.494;11.974;2023-03-11T07:26:39;9.87;;;5.43;;
9970;SDS011;5026;51.494;11.974;2023-03-11T07:29:06;9.97;;;5.00;;
9970;SDS011;5026;51.494;11.974;2023-03-11T07:31:34;7.33;;;5.53;;
9970;SDS011;5026;51.494;11.974;2023-03-11T07:34:02;7.47;;;5.43;;
9970;SDS011;5026;51.494;11.974;2023-03-11T07:36:35;11.33;;;5.33;;
9970;SDS011;5026;51.494;11.974;2023-03-11T07:39:03;9.97;;;5.83;;
9970;SDS011;5026;51.494;11.974;2023-03-11T07:41:31;8.80;;;5.07;;
9970;SDS011;5026;51.494;11.974;2023-03-11T07:44:00;8.23;;;5.40;;
9970;SDS011;5026;51.494;11.974;2023-03-11T07:46:28;11.30;;;6.00;;
9970;SDS011;5026;51.494;11.974;2023-03-11T07:48:55;7.20;;;4.73;;
9970;SDS011;5026;51.494;11.974;2023-03-11T07:51:23;6.57;;;4.57;;
9970;SDS011;5026;51.494;11.974;2023-03-11T07:53:51;6.40;;;4.90;;
9970;SDS011;5026;51.494;11.974;2023-03-11T07:56:21;8.73;;;4.67;;
9970;SDS011;5026;51.494;11.974;2023-03-11T07:58:49;8.57;;;4.53;;
9970;SDS011;5026;51.494;11.974;2023-03-11T08:01:17;7.07;;;4.17;;
9970;SDS011;5026;51.494;11.974;2023-03-11T08:03:46;8.60;;;4.07;;
9970;SDS011;5026;51.494;11.974;2023-03-11T08:06:15;8.13;;;4.17;;
9970;SDS011;5026;51.494;11.974;2023-03-11T08:08:45;8.07;;;4.20;;
9970;SDS011;5026;51.494;11.974;2023-03-11T08:11:13;7.77;;;3.90;;
9970;SDS011;5026;51.494;11.974;2023-03-11T08:13:43;5.03;;;3.73;;
9970;SDS011;5026;51.494;11.974;2023-03-11T08:16:14;6.40;;;3.40;;
9970;SDS011;5026;51.494;11.974;2023-03-11T08:18:42;4.97;;;3.60;;
9970;SDS011;5026;51.494;11.974;2023-03-11T08:21:11;5.83;;;4.60;;
9970;SDS011;5026;51.494;11.974;2023-03-11T08:23:39;5.70;;;3.93;;
9970;SDS011;5026;51.494;11.974;2023-03-11T08:26:08;3.50;;;3.20;;
9970;SDS011;5026;51.494;11.974;2023-03-11T08:28:36;4.27;;;3.30;;
9970;SDS011;5026;51.494;11.974;2023-03-11T08:31:11;3.73;;;3.40;;
9970;SDS011;5026;51.494;11.974;2023-03-11T08:33:39;3.23;;;2.93;;
9970;SDS011;5026;51.494;11.974;2023-03-11T08:36:06;5.97;;;3.90;;
9970;SDS011;5026;51.494;11.974;2023-03-11T08:38:33;5.00;;;3.33;;
9970;SDS011;5026;51.494;11.974;2023-03-11T08:41:00;3.77;;;3.20;;
9970;SDS011;5026;51.494;11.974;2023-03-11T08:43:27;5.33;;;3.53;;
9970;SDS011;5026;51.494;11.974;2023-03-11T08:45:54;5.53;;;3.50;;
9970;SDS011;5026;51.494;11.974;2023-03-11T08:48:23;4.57;;;3.70;;
9970;SDS011;5026;51.494;11.974;2023-03-11T08:50:50;7.43;;;3.80;;
9970;SDS011;5026;51.494;11.974;2023-03-11T08:53:16;5.03;;;3.30;;
9970;SDS011;5026;51.494;11.974;2023-03-11T08:55:43;5.17;;;3.30;;
9970;SDS011;5026;51.494;11.974;2023-03-11T08:58:10;4.87;;;3.43;;
9970;SDS011;5026;51.494;11.974;2023-03-11T09:00:37;5.13;;;3.90;;
9970;SDS011;5026;51.494;11.974;2023-03-11T09:03:04;3.77;;;3.37;;
9970;SDS011;5026;51.494;11.974;2023-03-11T09:05:32;5.00;;;3.47;;
9970;SDS011;5026;51.494;11.974;2023-03-11T09:07:59;3.60;;;3.10;;
9970;SDS011;5026;51.494;11.974;2023-03-11T09:10:27;5.17;;;3.67;;
9970;SDS011;5026;51.494;11.974;2023-03-11T09:12:54;6.83;;;3.67;;
9970;SDS011;5026;51.494;11.974;2023-03-11T09:15:21;4.53;;;3.40;;
9970;SDS011;5026;51.494;11.974;2023-03-11T09:17:48;6.13;;;4.10;;
9970;SDS011;5026;51.494;11.974;2023-03-11T09:20:15;5.53;;;3.43;;
9970;SDS011;5026;51.494;11.974;2023-03-11T09:22:44;6.13;;;4.07;;
9970;SDS011;5026;51.494;11.974;2023-03-11T09:25:11;8.60;;;4.10;;
9970;SDS011;5026;51.494;11.974;2023-03-11T09:27:39;5.23;;;3.53;;
9970;SDS011;5026;51.494;11.974;2023-03-11T09:30:07;6.13;;;3.20;;
9970;SDS011;5026;51.494;11.974;2023-03-11T09:32:34;5.60;;;3.30;;
9970;SDS011;5026;51.494;11.974;2023-03-11T09:35:01;5.23;;;3.70;;
9970;SDS011;5026;51.494;11.974;2023-03-11T09:37:29;6.07;;;4.10;;
9970;SDS011;5026;51.494;11.974;2023-03-11T09:39:57;3.57;;;3.27;;
9970;SDS011;5026;51.494;11.974;2023-03-11T09:42:26;4.87;;;3.43;;
9970;SDS011;5026;51.494;11.974;2023-03-11T09:44:59;3.60;;;3.30;;
9970;SDS011;5026;51.494;11.974;2023-03-11T09:47:36;4.80;;;3.03;;
9970;SDS011;5026;51.494;11.974;2023-03-11T09:50:16;4.77;;;3.37;;
9970;SDS011;5026;51.494;11.974;2023-03-11T09:52:51;5.83;;;3.30;;
9970;SDS011;5026;51.494;11.974;2023-03-11T09:55:29;4.13;;;3.27;;
9970;SDS011;5026;51.494;11.974;2023-03-11T09:58:02;5.33;;;3.50;;
9970;SDS011;5026;51.494;11.974;2023-03-11T10:00:34;5.20;;;4.03;;
9970;SDS011;5026;51.494;11.974;2023-03-11T10:03:02;4.53;;;3.10;;
9970;SDS011;5026;51.494;11.974;2023-03-11T10:05:37;4.40;;;3.27;;
9970;SDS011;5026;51.494;11.974;2023-03-11T10:08:10;5.00;;;3.30;;
9970;SDS011;5026;51.494;11.974;2023-03-11T10:10:47;5.67;;;3.60;;
9970;SDS011;5026;51.494;11.974;2023-03-11T10:13:24;5.93;;;3.43;;
9970;SDS011;5026;51.494;11.974;2023-03-11T10:15:59;6.30;;;3.40;;
9970;SDS011;5026;51.494;11.974;2023-03-11T10:18:38;5.50;;;4.03;;
9970;SDS011;5026;51.494;11.974;2023-03-11T10:21:17;7.93;;;3.63;;
9970;SDS011;5026;51.494;11.974;2023-03-11T10:23:55;5.53;;;3.60;;
9970;SDS011;5026;51.494;11.974;2023-03-11T10:26:36;4.00;;;3.60;;
9970;SDS011;5026;51.494;11.974;2023-03-11T10:29:10;5.23;;;4.10;;
9970;SDS011;5026;51.494;11.974;2023-03-11T10:31:42;3.87;;;3.30;;
9970;SDS011;5026;51.494;11.974;2023-03-11T10:34:14;7.17;;;3.40;;
9970;SDS011;5026;51.494;11.974;2023-03-11T10:36:49;6.37;;;3.97;;
9970;SDS011;5026;51.494;11.974;2023-03-11T10:39:21;4.97;;;3.40;;
9970;SDS011;5026;51.494;11.974;2023-03-11T10:41:51;4.97;;;3.60;;
9970;SDS011;5026;51.494;11.974;2023-03-11T10:44:21;3.67;;;3.20;;
9970;SDS011;5026;51.494;11.974;2023-03-11T10:46:51;5.13;;;3.73;;
9970;SDS011;5026;51.494;11.974;2023-03-11T10:49:18;4.80;;;3.63;;
9970;SDS011;5026;51.494;11.974;2023-03-11T10:51:45;6.30;;;4.33;;
9970;SDS011;5026;51.494;11.974;2023-03-11T10:54:20;4.83;;;3.80;;
9970;SDS011;5026;51.494;11.974;2023-03-11T10:56:53;6.13;;;3.93;;
9970;SDS011;5026;51.494;11.974;2023-03-11T10:59:22;5.17;;;3.43;;
9970;SDS011;5026;51.494;11.974;2023-03-11T11:01:54;6.67;;;3.70;;
9970;SDS011;5026;51.494;11.974;2023-03-11T11:04:27;4.47;;;3.73;;
9970;SDS011;5026;51.494;11.974;2023-03-11T11:06:56;6.20;;;4.00;;
9970;SDS011;5026;51.494;11.974;2023-03-11T11:09:24;8.13;;;3.80;;
9970;SDS011;5026;51.494;11.974;2023-03-11T11:12:04;6.33;;;3.93;;
9970;SDS011;5026;51.494;11.974;2023-03-11T11:14:40;6.00;;;3.90;;
9970;SDS011;5026;51.494;11.974;2023-03-11T11:17:16;4.63;;;3.97;;
9970;SDS011;5026;51.494;11.974;2023-03-11T11:19:45;5.80;;;3.47;;
9970;SDS011;5026;51.494;11.974;2023-03-11T11:22:24;4.10;;;3.70;;
9970;SDS011;5026;51.494;11.974;2023-03-11T11:24:56;4.47;;;4.07;;
9970;SDS011;5026;51.494;11.974;2023-03-11T11:27:31;5.87;;;4.20;;
9970;SDS011;5026;51.494;11.974;2023-03-11T11:30:11;6.73;;;4.70;;
9970;SDS011;5026;51.494;11.974;2023-03-11T11:32:41;4.20;;;3.80;;
9970;SDS011;5026;51.494;11.974;2023-03-11T11:35:09;4.80;;;3.33;;
9970;SDS011;5026;51.494;11.974;2023-03-11T11:37:39;4.60;;;3.90;;
9970;SDS011;5026;51.494;11.974;2023-03-11T11:40:16;5.70;;;3.53;;
9970;SDS011;5026;51.494;11.974;2023-03-11T11:42:54;5.30;;;3.73;;
9970;SDS011;5026;51.494;11.974;2023-03-11T11:45:26;7.60;;;3.93;;
9970;SDS011;5026;51.494;11.974;2023-03-11T11:47:58;3.97;;;3.33;;
9970;SDS011;5026;51.494;11.974;2023-03-11T11:50:30;4.63;;;3.83;;
9970;SDS011;5026;51.494;11.974;2023-03-11T11:53:01;5.13;;;3.93;;
9970;SDS011;5026;51.494;11.974;2023-03-11T11:55:37;6.90;;;4.43;;
9970;SDS011;5026;51.494;11.974;2023-03-11T11:58:10;6.80;;;4.83;;
9970;SDS011;5026;51.494;11.974;2023-03-11T12:00:39;5.73;;;4.50;;
9970;SDS011;5026;51.494;11.974;2023-03-11T12:06:26;6.67;;;4.50;;
9970;SDS011;5026;51.494;11.974;2023-03-11T12:09:02;4.67;;;4.23;;
9970;SDS011;5026;51.494;11.974;2023-03-11T12:11:40;8.03;;;4.90;;
9970;SDS011;5026;51.494;11.974;2023-03-11T12:14:13;4.77;;;4.10;;
9970;SDS011;5026;51.494;11.974;2023-03-11T12:16:47;6.27;;;4.20;;
9970;SDS011;5026;51.494;11.974;2023-03-11T12:19:21;8.00;;;4.53;;
9970;SDS011;5026;51.494;11.974;2023-03-11T12:22:02;5.13;;;4.27;;
9970;SDS011;5026;51.494;11.974;2023-03-11T12:24:53;5.00;;;4.23;;
9970;SDS011;5026;51.494;11.974;2023-03-11T12:27:31;5.23;;;4.03;;
9970;SDS011;5026;51.494;11.974;2023-03-11T12:30:04;5.23;;;4.03;;
9970;SDS011;5026;51.494;11.974;2023-03-11T12:32:40;6.03;;;4.13;;
9970;SDS011;5026;51.494;11.974;2023-03-11T12:35:17;4.80;;;4.30;;
9970;SDS011;5026;51.494;11.974;2023-03-11T12:37:54;7.70;;;5.13;;
9970;SDS011;5026;51.494;11.974;2023-03-11T12:43:25;6.23;;;4.23;;
9970;SDS011;5026;51.494;11.974;2023-03-11T12:46:15;4.87;;;4.37;;
9970;SDS011;5026;51.494;11.974;2023-03-11T12:48:43;4.67;;;4.10;;
9970;SDS011;5026;51.494;11.974;2023-03-11T12:54:29;6.60;;;4.40;;
9970;SDS011;5026;51.494;11.974;2023-03-11T12:56:58;6.37;;;4.47;;
9970;SDS011;5026;51.494;11.974;2023-03-11T12:59:40;6.70;;;4.60;;
9970;SDS011;5026;51.494;11.974;2023-03-11T13:02:28;7.30;;;4.13;;
9970;SDS011;5026;51.494;11.974;2023-03-11T13:05:18;4.67;;;4.27;;
9970;SDS011;5026;51.494;11.974;2023-03-11T13:07:50;5.60;;;4.10;;
9970;SDS011;5026;51.494;11.974;2023-03-11T13:10:38;4.67;;;4.17;;
9970;SDS011;5026;51.494;11.974;2023-03-11T13:15:57;4.73;;;4.00;;
9970;SDS011;5026;51.494;11.974;2023-03-11T13:22:32;3.83;;;3.53;;
9970;SDS011;5026;51.494;11.974;2023-03-11T13:25:29;5.27;;;3.87;;
9970;SDS011;5026;51.494;11.974;2023-03-11T13:28:05;6.60;;;4.00;;
9970;SDS011;5026;51.494;11.974;2023-03-11T13:31:05;5.53;;;4.13;;
9970;SDS011;5026;51.494;11.974;2023-03-11T13:33:50;4.40;;;4.00;;
9970;SDS011;5026;51.494;11.974;2023-03-11T13:36:20;4.53;;;4.13;;
9970;SDS011;5026;51.494;11.974;2023-03-11T13:39:03;4.00;;;3.43;;
9970;SDS011;5026;51.494;11.974;2023-03-11T13:41:43;7.23;;;3.70;;
9970;SDS011;5026;51.494;11.974;2023-03-11T13:44:13;3.83;;;2.87;;
9970;SDS011;5026;51.494;11.974;2023-03-11T13:46:46;5.37;;;3.07;;
9970;SDS011;5026;51.494;11.974;2023-03-11T13:49:20;3.17;;;2.63;;
9970;SDS011;5026;51.494;11.974;2023-03-11T13:51:52;4.77;;;2.70;;
9970;SDS011;5026;51.494;11.974;2023-03-11T13:54:29;3.70;;;2.30;;
9970;SDS011;5026;51.494;11.974;2023-03-11T13:57:01;3.63;;;2.57;;
9970;SDS011;5026;51.494;11.974;2023-03-11T13:59:29;4.03;;;2.73;;
9970;SDS011;5026;51.494;11.974;2023-03-11T14:01:58;4.47;;;3.20;;
9970;SDS011;5026;51.494;11.974;2023-03-11T14:04:29;2.90;;;2.63;;
9970;SDS011;5026;51.494;11.974;2023-03-11T14:06:57;2.80;;;2.53;;
9970;SDS011;5026;51.494;11.974;2023-03-11T14:09:25;9.90;;;3.00;;
9970;SDS011;5026;51.494;11.974;2023-03-11T14:11:53;4.90;;;2.30;;
9970;SDS011;5026;51.494;11.974;2023-03-11T14:14:33;2.63;;;2.43;;
9970;SDS011;5026;51.494;11.974;2023-03-11T14:17:09;5.93;;;2.50;;
9970;SDS011;5026;51.494;11.974;2023-03-11T14:19:41;2.73;;;2.47;;
9970;SDS011;5026;51.494;11.974;2023-03-11T14:22:08;4.30;;;2.33;;
9970;SDS011;5026;51.494;11.974;2023-03-11T14:24:35;2.27;;;1.93;;
9970;SDS011;5026;51.494;11.974;2023-03-11T14:27:06;3.47;;;2.60;;
9970;SDS011;5026;51.494;11.974;2023-03-11T14:29:35;3.73;;;2.10;;
9970;SDS011;5026;51.494;11.974;2023-03-11T14:32:16;3.47;;;2.83;;
9970;SDS011;5026;51.494;11.974;2023-03-11T14:34:53;4.40;;;2.60;;
9970;SDS011;5026;51.494;11.974;2023-03-11T14:37:23;4.30;;;2.90;;
9970;SDS011;5026;51.494;11.974;2023-03-11T14:39:52;4.90;;;3.13;;
9970;SDS011;5026;51.494;11.974;2023-03-11T14:42:20;3.67;;;2.70;;
9970;SDS011;5026;51.494;11.974;2023-03-11T14:44:51;2.90;;;2.40;;
9970;SDS011;5026;51.494;11.974;2023-03-11T14:47:28;5.03;;;2.90;;
9970;SDS011;5026;51.494;11.974;2023-03-11T14:50:01;3.43;;;2.90;;
9970;SDS011;5026;51.494;11.974;2023-03-11T14:52:31;4.00;;;3.00;;
9970;SDS011;5026;51.494;11.974;2023-03-11T14:55:02;5.77;;;2.90;;
9970;SDS011;5026;51.494;11.974;2023-03-11T14:57:33;3.67;;;2.20;;
9970;SDS011;5026;51.494;11.974;2023-03-11T15:00:04;4.53;;;2.40;;
9970;SDS011;5026;51.494;11.974;2023-03-11T15:02:41;6.27;;;2.63;;
9970;SDS011;5026;51.494;11.974;2023-03-11T15:05:15;3.90;;;2.90;;
9970;SDS011;5026;51.494;11.974;2023-03-11T15:07:46;3.07;;;2.30;;
9970;SDS011;5026;51.494;11.974;2023-03-11T15:10:16;4.50;;;2.47;;
9970;SDS011;5026;51.494;11.974;2023-03-11T15:12:43;2.13;;;1.70;;
9970;SDS011;5026;51.494;11.974;2023-03-11T15:15:20;4.57;;;2.13;;
9970;SDS011;5026;51.494;11.974;2023-03-11T15:17:52;3.73;;;2.20;;
9970;SDS011;5026;51.494;11.974;2023-03-11T15:20:26;4.70;;;2.00;;
9970;SDS011;5026;51.494;11.974;2023-03-11T15:22:55;3.60;;;1.90;;
9970;SDS011;5026;51.494;11.974;2023-03-11T15:25:25;2.50;;;2.00;;
9970;SDS011;5026;51.494;11.974;2023-03-11T15:27:53;4.07;;;2.30;;
9970;SDS011;5026;51.494;11.974;2023-03-11T15:30:21;6.03;;;2.47;;
9970;SDS011;5026;51.494;11.974;2023-03-11T15:32:50;3.43;;;2.13;;
9970;SDS011;5026;51.494;11.974;2023-03-11T15:35:18;3.70;;;2.10;;
9970;SDS011;5026;51.494;11.974;2023-03-11T15:37:48;4.53;;;2.17;;
9970;SDS011;5026;51.494;11.974;2023-03-11T15:40:18;3.47;;;2.40;;